Time;durP1;ratioP1;P1;durP2;ratioP2;P2;SDS_P1;SDS_P2;PMS_P1;PMS_P2;Temp;Humidity;BMP_temperature;BMP_pressure;BME280_temperature;BME280_humidity;BME280_pressure;Samples;Min_cycle;Max_cycle;Signal;HPM_P1;HPM_P2
2022/02/26 00:00:07;;;;;;;;;20.00;19.25;;;;;10.49;49.48;102695.53;2071389;28;47664;-57
2022/02/26 00:01:07;;;;;;;;;18.00;17.80;;;;;10.49;49.61;102697.28;2071160;28;47261;-58
2022/02/26 00:02:08;;;;;;;;;19.50;17.25;;;;;10.48;49.49;102695.50;2070481;28;47697;-59
2022/02/26 00:03:08;;;;;;;;;17.00;16.75;;;;;10.48;49.37;102695.50;2071386;28;48203;-57
2022/02/26 00:04:09;;;;;;;;;19.00;17.00;;;;;10.47;49.56;102701.69;2071352;28;47824;-57
2022/02/26 00:05:10;;;;;;;;;15.25;15.25;;;;;10.45;49.47;102698.13;2071161;28;48023;-58
2022/02/26 00:06:10;;;;;;;;;18.25;16.50;;;;;10.45;49.66;102699.03;2071558;28;47743;-58
2022/02/26 00:07:11;;;;;;;;;15.75;15.75;;;;;10.42;49.40;102701.66;2071109;28;47805;-58
2022/02/26 00:08:12;;;;;;;;;17.00;14.60;;;;;10.41;49.65;102705.16;2070973;28;47367;-59
2022/02/26 00:09:12;;;;;;;;;17.00;15.75;;;;;10.40;49.82;102702.47;2070748;28;47317;-58
2022/02/26 00:10:13;;;;;;;;;17.75;17.50;;;;;10.39;49.71;102706.91;2071104;28;47553;-59
2022/02/26 00:11:13;;;;;;;;;18.00;16.75;;;;;10.38;49.81;102698.94;2071090;28;47638;-59
2022/02/26 00:12:14;;;;;;;;;20.25;18.50;;;;;10.38;49.58;102706.91;2071121;28;47789;-58
2022/02/26 00:13:14;;;;;;;;;20.75;18.50;;;;;10.37;49.83;102700.69;2071200;28;47305;-58
2022/02/26 00:14:14;;;;;;;;;18.00;18.00;;;;;10.37;49.81;102702.47;2071495;28;47987;-57
2022/02/26 00:15:15;;;;;;;;;25.50;21.50;;;;;10.37;49.98;102698.03;2070985;28;47772;-59
2022/02/26 00:16:15;;;;;;;;;21.50;19.75;;;;;10.37;50.01;102698.03;2071390;28;47969;-57
2022/02/26 00:17:16;;;;;;;;;23.00;19.75;;;;;10.37;49.79;102702.47;2071273;28;47247;-59
2022/02/26 00:18:16;;;;;;;;;15.75;15.50;;;;;10.36;49.98;102701.56;2071042;28;47576;-58
2022/02/26 00:19:16;;;;;;;;;20.75;19.00;;;;;10.35;50.20;102704.22;2071359;28;48012;-59
2022/02/26 00:20:17;;;;;;;;;17.75;14.25;;;;;10.32;50.32;102698.00;2071007;28;47464;-59
2022/02/26 00:21:17;;;;;;;;;17.00;17.00;;;;;10.31;50.18;102698.00;2071423;28;47734;-59
2022/02/26 00:22:18;;;;;;;;;21.50;20.75;;;;;10.29;50.12;102697.06;2071190;28;47905;-58
2022/02/26 00:23:18;;;;;;;;;20.25;18.00;;;;;10.26;50.19;102705.88;2071081;28;48491;-57
2022/02/26 00:24:19;;;;;;;;;20.50;18.75;;;;;10.26;49.89;102703.22;2073152;28;47255;-59
2022/02/26 00:25:19;;;;;;;;;23.50;20.00;;;;;10.24;50.17;102701.44;2071358;28;47883;-58
2022/02/26 00:26:22;;;;;;;;;19.25;19.25;;;;;10.22;50.15;102705.84;2071055;28;47569;-59
2022/02/26 00:27:22;;;;;;;;;18.00;17.40;;;;;10.21;50.16;102704.94;2071513;28;47470;-59
2022/02/26 00:28:23;;;;;;;;;17.75;16.50;;;;;10.21;50.18;102704.03;2070994;28;47725;-59
2022/02/26 00:29:23;;;;;;;;;23.25;20.00;;;;;10.20;50.30;102708.44;2071462;28;47526;-57
2022/02/26 00:30:24;;;;;;;;;21.75;19.50;;;;;10.20;50.36;102704.91;2070945;28;47807;-58
2022/02/26 00:31:25;;;;;;;;;21.75;19.25;;;;;10.18;50.20;102704.88;2071269;28;47403;-58
2022/02/26 00:32:25;;;;;;;;;19.75;18.00;;;;;10.18;50.38;102706.66;2061353;28;47615;-59
2022/02/26 00:33:26;;;;;;;;;20.25;17.50;;;;;10.17;50.18;102708.41;2062104;28;48033;-59
2022/02/26 00:34:26;;;;;;;;;18.50;15.75;;;;;10.18;50.37;102711.97;2071031;28;47332;-58
2022/02/26 00:35:26;;;;;;;;;17.00;15.25;;;;;10.17;50.38;102705.75;2071249;28;47520;-59
2022/02/26 00:36:28;;;;;;;;;20.00;19.00;;;;;10.17;50.48;102702.22;2071141;28;47748;-59
2022/02/26 00:37:28;;;;;;;;;23.00;22.00;;;;;10.17;50.37;102707.53;2071131;28;48141;-58
2022/02/26 00:38:29;;;;;;;;;22.50;20.25;;;;;10.14;50.67;102703.06;2071211;28;47616;-59
2022/02/26 00:39:29;;;;;;;;;18.25;17.00;;;;;10.14;50.30;102705.69;2071219;28;47411;-58
2022/02/26 00:40:30;;;;;;;;;18.25;18.25;;;;;10.15;50.33;102709.25;2070976;28;48276;-59
2022/02/26 00:41:30;;;;;;;;;20.00;17.50;;;;;10.13;50.43;102713.66;2071250;28;47713;-57
2022/02/26 00:42:31;;;;;;;;;19.00;18.50;;;;;10.14;50.23;102712.78;2071050;28;48015;-59
2022/02/26 00:43:31;;;;;;;;;17.75;16.25;;;;;10.12;50.31;102714.53;2071264;28;48343;-58
2022/02/26 00:44:32;;;;;;;;;13.75;13.75;;;;;10.11;50.54;102716.28;2071005;28;47633;-58
2022/02/26 00:45:32;;;;;;;;;15.50;15.00;;;;;10.09;50.71;102718.03;2071145;28;47444;-58
2022/02/26 00:46:34;;;;;;;;;18.75;16.75;;;;;10.08;50.62;102723.31;2071305;28;48983;-60
2022/02/26 00:47:34;;;;;;;;;15.60;15.60;;;;;10.06;50.91;102718.00;2071257;28;47536;-59
2022/02/26 00:50:09;;;;;;;;;16.20;14.80;;;;;10.02;50.76;102716.16;2054028;28;47575;-58
2022/02/26 00:51:10;;;;;;;;;14.50;14.00;;;;;10.01;50.76;102714.38;2053670;28;48199;-57
2022/02/26 00:52:11;;;;;;;;;15.20;14.00;;;;;9.99;50.88;102714.38;2053839;28;47555;-58
2022/02/26 00:53:11;;;;;;;;;17.00;15.00;;;;;9.99;50.80;102710.81;2054221;28;47569;-57
2022/02/26 00:54:12;;;;;;;;;18.25;17.25;;;;;9.98;50.92;102704.63;2053735;28;45973;-58
2022/02/26 00:55:12;;;;;;;;;17.25;15.75;;;;;9.97;51.05;102705.50;2053909;28;47364;-56
2022/02/26 00:56:13;;;;;;;;;18.25;16.00;;;;;9.97;51.00;102701.97;2053727;28;46977;-58
2022/02/26 00:57:14;;;;;;;;;16.75;16.00;;;;;9.97;51.04;102704.63;2053967;28;47550;-59
2022/02/26 00:58:15;;;;;;;;;17.60;15.80;;;;;9.97;51.06;102709.94;2053959;28;48163;-59
2022/02/26 00:59:15;;;;;;;;;17.25;17.00;;;;;9.96;51.15;102702.84;2053729;28;46913;-57
2022/02/26 01:00:16;;;;;;;;;17.75;17.50;;;;;9.94;51.05;102705.47;2053916;28;47992;-59
2022/02/26 01:01:17;;;;;;;;;20.20;18.80;;;;;9.95;50.97;102709.91;2053991;28;47881;-57
2022/02/26 01:02:18;;;;;;;;;15.00;15.00;;;;;9.95;51.22;102711.66;2053921;28;47402;-58
2022/02/26 01:03:18;;;;;;;;;20.80;18.40;;;;;9.96;51.27;102706.38;2054026;28;48205;-58
2022/02/26 01:04:19;;;;;;;;;18.50;17.25;;;;;9.95;51.22;102706.38;2053938;28;47517;-58
2022/02/26 01:05:19;;;;;;;;;20.00;19.50;;;;;9.93;51.27;102709.00;2053678;28;47831;-57
2022/02/26 01:06:20;;;;;;;;;18.25;18.25;;;;;9.94;51.46;102709.88;2054131;28;47377;-58
2022/02/26 01:07:20;;;;;;;;;17.75;16.75;;;;;9.93;51.31;102708.13;2053618;28;46592;-58
2022/02/26 01:08:21;;;;;;;;;15.75;15.75;;;;;9.93;51.18;102714.31;2053974;28;47532;-57
2022/02/26 01:09:21;;;;;;;;;20.75;18.00;;;;;9.94;51.37;102709.88;2053839;28;46828;-58
2022/02/26 01:10:22;;;;;;;;;19.75;18.25;;;;;9.93;51.27;102716.06;2053735;28;47559;-59
2022/02/26 01:11:22;;;;;;;;;18.00;18.00;;;;;9.92;51.39;102712.53;2053898;28;47706;-59
2022/02/26 01:12:23;;;;;;;;;20.50;19.50;;;;;9.92;51.21;102714.28;2053866;28;47229;-59
2022/02/26 01:13:24;;;;;;;;;19.25;18.75;;;;;9.92;51.39;102716.94;2053923;28;47449;-59
2022/02/26 01:14:24;;;;;;;;;20.50;16.75;;;;;9.91;51.29;102721.34;2053829;28;47426;-58
2022/02/26 01:15:26;;;;;;;;;20.25;19.75;;;;;9.91;51.48;102720.44;2053938;28;47206;-57
2022/02/26 01:16:27;;;;;;;;;20.60;18.40;;;;;9.90;51.37;102714.25;2053653;28;48665;-57
2022/02/26 01:17:27;;;;;;;;;18.75;18.75;;;;;9.89;51.61;102715.13;2053997;28;47401;-58
2022/02/26 01:18:27;;;;;;;;;18.00;18.00;;;;;9.88;51.52;102723.06;2053537;28;47767;-59
2022/02/26 01:19:28;;;;;;;;;17.50;17.50;;;;;9.88;51.52;102720.41;2053690;28;47516;-58
2022/02/26 01:20:28;;;;;;;;;19.25;17.50;;;;;9.88;51.47;102728.34;2053516;28;47484;-58
2022/02/26 01:21:29;;;;;;;;;25.75;22.75;;;;;9.87;51.71;102718.63;2046778;28;47401;-57
2022/02/26 01:22:29;;;;;;;;;20.00;17.75;;;;;9.87;51.43;102716.88;2050112;28;47923;-61
2022/02/26 01:23:30;;;;;;;;;20.00;20.00;;;;;9.87;51.78;102724.81;2055230;28;47565;-58
2022/02/26 01:24:31;;;;;;;;;19.75;19.00;;;;;9.87;51.49;102726.59;2057148;28;47135;-57
2022/02/26 01:25:31;;;;;;;;;21.75;19.00;;;;;9.87;51.63;102721.28;2038779;28;47846;-60
2022/02/26 01:26:32;;;;;;;;;18.00;18.00;;;;;9.88;51.68;102723.06;2052144;28;48009;-59
2022/02/26 01:27:33;;;;;;;;;20.75;18.25;;;;;9.87;51.69;102724.81;2069456;28;47785;-58
2022/02/26 01:28:33;;;;;;;;;18.25;16.75;;;;;9.88;51.63;102723.06;2072523;28;47576;-58
2022/02/26 01:29:35;;;;;;;;;17.50;17.00;;;;;9.88;51.70;102728.34;2072452;28;47490;-59
2022/02/26 01:30:35;;;;;;;;;18.20;18.20;;;;;9.88;51.76;102728.34;2072147;28;48234;-58
2022/02/26 01:31:36;;;;;;;;;21.25;20.00;;;;;9.88;51.55;102729.25;2072284;28;47304;-59
2022/02/26 01:32:37;;;;;;;;;22.75;19.50;;;;;9.89;51.54;102728.38;2072715;28;45607;-58
2022/02/26 01:33:37;;;;;;;;;22.25;19.00;;;;;9.88;51.44;102723.94;2072553;28;47684;-58
2022/02/26 01:34:38;;;;;;;;;22.00;20.50;;;;;9.88;51.53;102731.91;2072402;28;47335;-59
2022/02/26 01:35:38;;;;;;;;;19.75;17.50;;;;;9.88;51.51;102728.34;2072339;28;47671;-58
2022/02/26 01:36:40;;;;;;;;;17.75;16.25;;;;;9.88;51.68;102737.19;2070988;28;47387;-58
2022/02/26 01:37:40;;;;;;;;;20.60;19.00;;;;;9.89;51.81;102732.78;2072005;28;47543;-57
2022/02/26 01:38:41;;;;;;;;;19.00;19.00;;;;;9.89;51.63;102730.13;2072318;28;47808;-59
2022/02/26 01:39:41;;;;;;;;;23.25;21.50;;;;;9.89;51.54;102725.72;2072632;28;47449;-59
2022/02/26 01:40:42;;;;;;;;;20.00;20.00;;;;;9.89;51.71;102731.03;2072203;28;48022;-59
2022/02/26 01:41:42;;;;;;;;;22.00;22.00;;;;;9.88;51.64;102729.25;2072330;28;47601;-60
2022/02/26 01:42:43;;;;;;;;;20.00;20.00;;;;;9.88;51.76;102729.25;2071844;28;48017;-59
2022/02/26 01:43:44;;;;;;;;;23.20;22.60;;;;;9.87;51.58;102734.53;2072094;28;45778;-59
2022/02/26 01:44:46;;;;;;;;;23.50;22.25;;;;;9.85;51.60;102731.88;2072313;28;47523;-59
2022/02/26 01:45:46;;;;;;;;;16.60;15.00;;;;;9.85;51.63;102733.63;2072481;28;47656;-58
2022/02/26 01:46:47;;;;;;;;;23.25;22.50;;;;;9.84;51.63;102735.41;2072170;28;47752;-58
2022/02/26 01:47:47;;;;;;;;;21.00;21.00;;;;;9.84;51.57;102732.75;2071679;28;47091;-57
2022/02/26 01:48:48;;;;;;;;;9.00;6.25;;;;;9.84;51.71;102731.84;2071655;28;47705;-57
2022/02/26 01:49:49;;;;;;;;;12.50;12.25;;;;;9.82;51.78;102733.59;2072213;28;47666;-57
2022/02/26 01:50:50;;;;;;;;;17.20;17.20;;;;;9.81;51.80;102730.06;2071965;28;47548;-58
2022/02/26 01:51:50;;;;;;;;;23.75;18.00;;;;;9.81;51.78;102726.50;2072137;28;47614;-58
2022/02/26 01:52:51;;;;;;;;;18.25;16.25;;;;;9.80;51.78;102722.09;2072070;28;47918;-59
2022/02/26 01:53:51;;;;;;;;;21.75;18.75;;;;;9.80;51.63;102727.38;2072126;28;47876;-57
2022/02/26 01:54:52;;;;;;;;;20.00;19.00;;;;;9.80;51.70;102732.69;2072246;28;47738;-59
2022/02/26 01:55:52;;;;;;;;;17.75;16.00;;;;;9.79;51.78;102731.81;2071540;28;47029;-57
2022/02/26 01:56:53;;;;;;;;;16.75;16.50;;;;;9.78;51.87;102724.69;2071427;28;47637;-57
2022/02/26 01:57:54;;;;;;;;;18.50;17.00;;;;;9.79;51.90;102725.59;2062676;28;48052;-59
2022/02/26 01:58:54;;;;;;;;;21.50;18.50;;;;;9.77;51.86;102727.31;2063187;28;47747;-55
2022/02/26 01:59:55;;;;;;;;;19.25;18.25;;;;;9.76;51.82;102723.78;2071947;28;47625;-56
2022/02/26 02:00:55;;;;;;;;;18.00;16.75;;;;;9.76;51.92;102723.78;2072187;28;47677;-57
2022/02/26 02:01:56;;;;;;;;;14.25;12.00;;;;;9.77;52.02;102722.03;2071939;28;47873;-57
2022/02/26 02:02:57;;;;;;;;;20.00;17.50;;;;;9.77;52.16;102724.66;2072228;28;47777;-58
2022/02/26 02:03:58;;;;;;;;;22.40;21.00;;;;;9.78;51.85;102729.09;2072146;28;47607;-58
2022/02/26 02:04:58;;;;;;;;;19.00;18.00;;;;;9.77;51.90;102727.31;2072409;28;47631;-57
2022/02/26 02:06:00;;;;;;;;;17.00;17.00;;;;;9.78;51.99;102729.09;2072131;28;47477;-58
2022/02/26 02:07:01;;;;;;;;;18.40;15.80;;;;;9.76;51.91;102730.84;2072145;28;47605;-57
2022/02/26 02:08:02;;;;;;;;;17.50;16.00;;;;;9.76;51.92;102734.38;2071963;28;47609;-58
2022/02/26 02:09:02;;;;;;;;;21.40;18.40;;;;;9.73;51.90;102731.69;2072510;28;47614;-57
2022/02/26 02:10:04;;;;;;;;;21.50;19.25;;;;;9.72;52.11;102729.91;2071543;28;47462;-58
2022/02/26 02:11:06;;;;;;;;;19.40;18.00;;;;;9.72;52.11;102721.97;2071105;28;48171;-58
2022/02/26 02:12:07;;;;;;;;;21.20;17.40;;;;;9.71;52.09;102726.38;2072207;28;47919;-58
2022/02/26 02:13:08;;;;;;;;;17.60;17.60;;;;;9.69;52.26;102722.81;2072085;28;48020;-58
2022/02/26 02:14:09;;;;;;;;;19.60;17.00;;;;;9.70;52.20;102718.41;2072023;28;47463;-59
2022/02/26 02:15:10;;;;;;;;;16.75;16.75;;;;;9.70;52.11;102723.72;2062669;28;48043;-59
2022/02/26 02:16:10;;;;;;;;;16.75;16.00;;;;;9.70;52.21;102729.00;2062656;28;47505;-58
2022/02/26 02:17:11;;;;;;;;;17.25;15.75;;;;;9.71;52.23;102733.44;2072372;28;47559;-59
2022/02/26 02:18:15;;;;;;;;;17.80;16.00;;;;;9.71;52.10;102736.97;2071875;28;47565;-58
2022/02/26 02:19:16;;;;;;;;;15.20;15.00;;;;;9.71;52.56;102730.78;2072030;28;47849;-58
2022/02/26 02:20:16;;;;;;;;;13.25;12.50;;;;;9.71;52.27;102734.34;2071462;28;48098;-58
2022/02/26 02:21:17;;;;;;;;;19.25;15.00;;;;;9.71;52.24;102739.63;2071736;28;47469;-58
2022/02/26 02:22:20;;;;;;;;;17.50;17.50;;;;;9.71;52.13;102736.97;2071948;28;47597;-58
2022/02/26 02:23:21;;;;;;;;;16.20;14.40;;;;;9.71;52.00;102734.34;2071776;28;47793;-58
2022/02/26 02:24:21;;;;;;;;;12.75;12.75;;;;;9.72;52.41;102732.56;2074163;28;47180;-58
2022/02/26 02:25:26;;;;;;;;;17.50;15.25;;;;;9.72;52.33;102727.25;2071800;28;47259;-59
2022/02/26 02:26:28;;;;;;;;;17.60;13.60;;;;;9.71;52.32;102729.03;2071232;28;48120;-59
2022/02/26 02:27:29;;;;;;;;;11.40;10.60;;;;;9.71;52.13;102731.69;2072024;28;47760;-58
2022/02/26 02:28:29;;;;;;;;;15.00;15.00;;;;;9.70;52.20;102734.31;2071675;28;47783;-58
2022/02/26 02:29:29;;;;;;;;;14.75;14.00;;;;;9.71;52.30;102733.44;2072152;28;47922;-59
2022/02/26 02:30:30;;;;;;;;;16.25;13.25;;;;;9.69;52.20;102725.47;2071981;28;47480;-58
2022/02/26 02:31:31;;;;;;;;;13.20;11.40;;;;;9.69;52.57;102732.53;2071691;28;47668;-59
2022/02/26 02:32:32;;;;;;;;;13.00;13.00;;;;;9.67;52.39;102727.22;2071524;28;47664;-56
2022/02/26 02:33:46;;;;;;;;;16.50;15.25;;;;;9.69;52.37;102733.44;2062427;28;47956;-58
2022/02/26 02:34:46;;;;;;;;;16.60;14.00;;;;;9.70;52.15;102732.56;2064628;28;47907;-59
2022/02/26 02:35:47;;;;;;;;;16.25;16.25;;;;;9.70;52.38;102727.25;2072077;28;47802;-59
2022/02/26 02:36:48;;;;;;;;;14.00;13.00;;;;;9.72;52.27;102721.97;2071701;28;47587;-59
2022/02/26 02:37:49;;;;;;;;;12.80;12.40;;;;;9.73;52.20;102721.09;2071853;28;48185;-59
2022/02/26 02:38:49;;;;;;;;;14.75;11.75;;;;;9.73;52.27;102721.09;2072132;28;47600;-59
2022/02/26 02:39:49;;;;;;;;;10.25;10.25;;;;;9.72;52.32;102717.56;2071964;28;48158;-59
2022/02/26 02:40:50;;;;;;;;;13.25;12.25;;;;;9.73;52.31;102710.50;2072023;28;47398;-58
2022/02/26 02:41:50;;;;;;;;;12.75;11.75;;;;;9.74;52.35;102709.63;2062024;28;47444;-58
2022/02/26 02:42:52;;;;;;;;;16.75;13.00;;;;;9.74;52.39;102710.50;2062488;28;47345;-56
2022/02/26 02:43:53;;;;;;;;;13.80;8.80;;;;;9.73;52.10;102710.50;2071756;28;47453;-59
2022/02/26 02:44:53;;;;;;;;;16.75;12.75;;;;;9.72;52.22;102708.72;2071829;28;47838;-59
2022/02/26 02:45:53;;;;;;;;;15.00;14.00;;;;;9.71;52.18;102705.16;2071955;28;47321;-58
2022/02/26 02:46:54;;;;;;;;;13.75;13.75;;;;;9.72;52.33;102712.25;2071275;28;47631;-60
2022/02/26 02:47:54;;;;;;;;;14.25;13.00;;;;;9.71;52.31;102709.59;2071484;28;47676;-58
2022/02/26 02:48:55;;;;;;;;;16.75;15.00;;;;;9.70;52.53;102707.81;2071706;28;47702;-58
2022/02/26 02:49:56;;;;;;;;;15.40;14.20;;;;;9.69;52.43;102712.22;2071654;28;47622;-57
2022/02/26 02:50:57;;;;;;;;;16.00;14.25;;;;;9.68;52.49;102704.25;2071957;28;47777;-60
2022/02/26 02:51:57;;;;;;;;;12.50;10.25;;;;;9.66;52.17;102709.53;2071820;28;47660;-58
2022/02/26 02:52:58;;;;;;;;;12.00;11.50;;;;;9.65;52.10;102706.81;2071878;28;47600;-58
2022/02/26 02:53:59;;;;;;;;;14.80;13.40;;;;;9.65;52.25;102713.03;2071835;28;48012;-60
2022/02/26 02:54:59;;;;;;;;;13.25;12.25;;;;;9.64;52.62;102702.41;2072073;28;47961;-59
2022/02/26 02:56:00;;;;;;;;;14.75;12.75;;;;;9.65;52.43;102709.47;2071925;28;47450;-59
2022/02/26 02:57:00;;;;;;;;;12.75;12.50;;;;;9.63;52.59;102712.13;2071996;28;47566;-59
2022/02/26 02:58:01;;;;;;;;;13.50;11.75;;;;;9.65;52.69;102709.47;2071954;28;47578;-58
2022/02/26 02:59:01;;;;;;;;;15.60;14.60;;;;;9.64;52.38;102710.34;2071356;28;47715;-59
2022/02/26 03:00:05;;;;;;;;;16.00;16.00;;;;;9.61;52.64;102711.22;2071215;28;47523;-58
2022/02/26 03:01:05;;;;;;;;;17.40;15.00;;;;;9.61;52.44;102712.97;2071328;28;47956;-58
2022/02/26 03:02:06;;;;;;;;;21.00;18.00;;;;;9.59;52.46;102707.66;2071648;28;47040;-58
2022/02/26 03:03:07;;;;;;;;;23.00;19.75;;;;;9.57;52.43;102709.38;2071681;28;47556;-56
2022/02/26 03:04:07;;;;;;;;;24.60;20.60;;;;;9.59;52.63;102717.38;2071692;28;47399;-58
2022/02/26 03:05:10;;;;;;;;;29.25;28.25;;;;;9.59;52.51;102709.41;2071068;28;47203;-56
2022/02/26 03:06:11;;;;;;;;;34.20;30.00;;;;;9.59;52.20;102712.06;2071146;28;48238;-56
2022/02/26 03:07:11;;;;;;;;;33.00;32.00;;;;;9.58;52.41;102704.97;2071658;28;47771;-58
2022/02/26 03:08:13;;;;;;;;;41.50;35.75;;;;;9.56;52.37;102702.31;2071729;28;47781;-59
2022/02/26 03:09:13;;;;;;;;;37.40;33.60;;;;;9.57;52.53;102703.19;2070598;28;47788;-59
2022/02/26 03:10:14;;;;;;;;;36.25;32.00;;;;;9.57;52.53;102697.91;2070681;28;47858;-59
2022/02/26 03:11:15;;;;;;;;;31.40;29.20;;;;;9.58;52.34;102694.38;2071530;28;48202;-57
2022/02/26 03:12:17;;;;;;;;;36.60;32.00;;;;;9.59;52.57;102698.81;2071592;28;47767;-58
2022/02/26 03:13:20;;;;;;;;;34.20;29.80;;;;;9.59;52.39;102702.34;2071681;28;47994;-58
2022/02/26 03:14:20;;;;;;;;;30.20;27.60;;;;;9.59;52.29;102693.50;2071830;28;47543;-58
2022/02/26 03:15:22;;;;;;;;;26.50;22.25;;;;;9.59;52.44;102694.41;2071658;28;47528;-59
2022/02/26 03:16:22;;;;;;;;;24.00;23.40;;;;;9.60;52.43;102696.16;2071760;28;48533;-60
2022/02/26 03:17:24;;;;;;;;;27.00;25.25;;;;;9.60;52.62;102692.63;2071497;28;47313;-58
2022/02/26 03:18:25;;;;;;;;;27.00;25.00;;;;;9.58;52.49;102692.63;2061975;28;47966;-59
2022/02/26 03:19:26;;;;;;;;;26.40;24.00;;;;;9.59;52.57;102693.50;2062572;28;47604;-58
2022/02/26 03:20:26;;;;;;;;;25.50;23.75;;;;;9.59;52.41;102696.16;2063607;28;47777;-59
2022/02/26 03:21:26;;;;;;;;;29.00;26.00;;;;;9.59;52.46;102694.41;2066791;28;47220;-59
2022/02/26 03:22:27;;;;;;;;;23.75;21.50;;;;;9.60;52.47;102695.28;2071644;28;47694;-58
2022/02/26 03:23:27;;;;;;;;;24.00;23.00;;;;;9.61;52.46;102695.31;2071527;28;47575;-56
2022/02/26 03:24:28;;;;;;;;;25.00;20.25;;;;;9.61;52.28;102695.31;2073829;28;47131;-58
2022/02/26 03:25:28;;;;;;;;;22.75;19.75;;;;;9.61;52.25;102694.41;2071769;28;47919;-57
2022/02/26 03:26:29;;;;;;;;;22.75;21.25;;;;;9.61;52.43;102694.41;2071444;28;47823;-58
2022/02/26 03:27:29;;;;;;;;;20.00;18.75;;;;;9.60;52.48;102698.81;2062191;28;47555;-58
2022/02/26 03:28:30;;;;;;;;;21.50;17.75;;;;;9.59;52.08;102694.41;2062477;28;47888;-60
2022/02/26 03:29:30;;;;;;;;;18.00;16.50;;;;;9.59;52.39;102694.41;2071671;28;48080;-58
2022/02/26 03:30:31;;;;;;;;;18.00;17.00;;;;;9.58;52.61;102697.91;2071691;28;47889;-58
2022/02/26 03:31:31;;;;;;;;;24.00;17.50;;;;;9.59;52.63;102696.16;2071674;28;47436;-56
2022/02/26 03:32:32;;;;;;;;;16.25;15.00;;;;;9.58;52.58;102695.25;2071193;28;47754;-59
2022/02/26 03:33:32;;;;;;;;;17.25;16.00;;;;;9.57;52.49;102695.25;2071233;28;47654;-57
2022/02/26 03:34:34;;;;;;;;;19.75;16.25;;;;;9.59;52.39;102694.41;2071443;28;47734;-58
2022/02/26 03:35:35;;;;;;;;;19.60;16.60;;;;;9.58;52.55;102697.91;2071192;28;47974;-59
2022/02/26 03:36:35;;;;;;;;;16.25;15.75;;;;;9.57;52.42;102697.91;2071624;28;47227;-58
2022/02/26 03:37:36;;;;;;;;;12.00;8.75;;;;;9.57;52.44;102695.25;2069787;28;47172;-59
2022/02/26 03:38:38;;;;;;;;;14.50;12.75;;;;;9.57;52.15;102698.78;2053567;28;47522;-58
2022/02/26 03:39:38;;;;;;;;;15.40;15.40;;;;;9.58;52.32;102703.22;2054428;28;47597;-57
2022/02/26 03:40:39;;;;;;;;;17.75;14.75;;;;;9.57;52.47;102697.91;2071675;28;47459;-60
2022/02/26 03:41:40;;;;;;;;;14.50;14.50;;;;;9.56;52.42;102702.31;2071264;28;47644;-60
2022/02/26 03:42:41;;;;;;;;;15.20;14.60;;;;;9.57;52.68;102705.84;2071360;28;48103;-59
2022/02/26 03:43:42;;;;;;;;;13.00;12.25;;;;;9.56;52.64;102702.31;2070729;28;47389;-58
2022/02/26 03:44:43;;;;;;;;;13.50;12.50;;;;;9.55;52.54;102699.66;2071656;28;47793;-59
2022/02/26 03:45:44;;;;;;;;;17.20;13.40;;;;;9.53;52.48;102696.06;2071533;28;48245;-59
2022/02/26 03:46:44;;;;;;;;;12.50;12.50;;;;;9.53;52.36;102696.06;2071882;28;47405;-60
2022/02/26 03:47:44;;;;;;;;;14.75;14.00;;;;;9.53;52.48;102696.06;2071453;28;47453;-59
2022/02/26 03:48:46;;;;;;;;;15.25;14.25;;;;;9.52;52.41;102686.31;2071622;28;47871;-59
2022/02/26 03:49:47;;;;;;;;;10.60;10.60;;;;;9.52;52.61;102696.91;2071577;28;47653;-58
2022/02/26 03:50:47;;;;;;;;;12.20;11.60;;;;;9.51;52.62;102689.84;2071413;28;48045;-59
2022/02/26 03:51:48;;;;;;;;;18.50;14.75;;;;;9.49;52.54;102692.47;2071528;28;47258;-59
2022/02/26 03:52:49;;;;;;;;;16.20;15.40;;;;;9.49;52.66;102687.19;2071390;28;47043;-59
2022/02/26 03:53:49;;;;;;;;;15.25;12.00;;;;;9.48;52.61;102696.00;2071397;28;47825;-59
2022/02/26 03:54:50;;;;;;;;;15.00;13.50;;;;;9.48;52.70;102689.81;2071620;28;47228;-58
2022/02/26 03:55:51;;;;;;;;;13.20;13.20;;;;;9.48;52.60;102692.47;2071354;28;47301;-58
2022/02/26 03:56:51;;;;;;;;;16.25;16.00;;;;;9.49;52.83;102692.47;2071483;28;48117;-58
2022/02/26 03:57:52;;;;;;;;;15.25;14.25;;;;;9.48;52.81;102695.09;2071472;28;47807;-58
2022/02/26 03:58:52;;;;;;;;;16.00;16.00;;;;;9.47;52.60;102693.34;2071470;28;47334;-59
2022/02/26 03:59:53;;;;;;;;;14.25;13.75;;;;;9.47;52.83;102695.97;2071455;28;47910;-58
2022/02/26 04:00:53;;;;;;;;;15.00;13.00;;;;;9.47;52.85;102693.34;2071347;28;47517;-59
2022/02/26 04:01:53;;;;;;;;;21.75;17.50;;;;;9.47;52.70;102691.56;2071558;28;48049;-58
2022/02/26 04:02:54;;;;;;;;;16.50;15.50;;;;;9.47;52.82;102696.88;2071233;28;47935;-58
2022/02/26 04:03:54;;;;;;;;;15.50;15.25;;;;;9.47;52.83;102691.56;2071485;28;47586;-60
2022/02/26 04:04:55;;;;;;;;;17.75;17.75;;;;;9.47;52.73;102696.88;2071326;28;47450;-60
2022/02/26 04:05:55;;;;;;;;;20.00;17.25;;;;;9.48;52.71;102703.94;2071345;28;47402;-58
2022/02/26 04:06:56;;;;;;;;;18.50;16.25;;;;;9.48;52.81;102706.59;2071468;28;47311;-59
2022/02/26 04:07:56;;;;;;;;;18.00;16.00;;;;;9.47;52.95;102707.47;2071367;28;47874;-58
2022/02/26 04:08:57;;;;;;;;;15.75;15.75;;;;;9.47;53.00;102710.13;2071394;28;47886;-59
2022/02/26 04:09:58;;;;;;;;;14.25;13.75;;;;;9.47;52.89;102703.94;2071520;28;47315;-58
2022/02/26 04:10:58;;;;;;;;;16.75;15.75;;;;;9.47;52.75;102712.78;2071546;28;47512;-58
2022/02/26 04:11:58;;;;;;;;;22.50;19.50;;;;;9.44;52.55;102704.78;2071541;28;47367;-57
2022/02/26 04:12:59;;;;;;;;;20.50;18.50;;;;;9.44;52.97;102702.13;2071313;28;47308;-58
2022/02/26 04:13:59;;;;;;;;;17.50;17.50;;;;;9.44;52.56;102708.31;2071617;28;48002;-59
2022/02/26 04:15:00;;;;;;;;;18.50;18.25;;;;;9.42;52.67;102704.75;2071228;28;47446;-58
2022/02/26 04:16:00;;;;;;;;;17.25;17.00;;;;;9.43;52.93;102705.66;2071402;28;47783;-58
2022/02/26 04:17:01;;;;;;;;;22.75;21.00;;;;;9.42;52.83;102706.53;2071228;28;47357;-59
2022/02/26 04:18:01;;;;;;;;;21.25;18.00;;;;;9.42;52.82;102703.88;2061731;28;47494;-57
2022/02/26 04:19:02;;;;;;;;;19.25;18.25;;;;;9.40;52.91;102703.84;2062042;28;47237;-58
2022/02/26 04:20:03;;;;;;;;;24.50;21.50;;;;;9.41;52.79;102707.41;2070498;28;47440;-58
2022/02/26 04:21:04;;;;;;;;;21.20;19.80;;;;;9.39;52.73;102717.94;2070591;28;47576;-57
2022/02/26 04:22:05;;;;;;;;;24.25;23.00;;;;;9.38;52.62;102712.63;2071491;28;46599;-57
2022/02/26 04:23:05;;;;;;;;;21.00;18.00;;;;;9.39;52.79;102715.28;2070910;28;47270;-57
2022/02/26 04:24:06;;;;;;;;;26.50;24.50;;;;;9.39;52.86;102711.75;2072678;28;47656;-58
2022/02/26 04:25:07;;;;;;;;;19.75;18.75;;;;;9.38;52.83;102720.56;2071800;28;47992;-59
2022/02/26 04:26:07;;;;;;;;;21.60;21.60;;;;;9.38;52.63;102715.28;2053540;28;47871;-59
2022/02/26 04:27:08;;;;;;;;;27.00;23.25;;;;;9.37;52.81;102718.78;2054054;28;47350;-59
2022/02/26 04:28:08;;;;;;;;;28.00;25.00;;;;;9.37;52.67;102719.69;2061701;28;47559;-58
2022/02/26 04:29:09;;;;;;;;;30.75;27.00;;;;;9.36;52.76;102715.25;2061953;28;47605;-58
2022/02/26 04:30:11;;;;;;;;;25.50;25.50;;;;;9.37;53.01;102718.78;2071158;28;47617;-59
2022/02/26 04:31:11;;;;;;;;;27.20;27.20;;;;;9.36;52.73;102722.31;2071266;28;47557;-57
2022/02/26 04:32:11;;;;;;;;;33.25;29.50;;;;;9.35;52.91;102717.88;2071005;28;47242;-58
2022/02/26 04:33:14;;;;;;;;;29.00;27.25;;;;;9.34;52.92;102722.28;2070980;28;47298;-59
2022/02/26 04:34:15;;;;;;;;;32.80;29.80;;;;;9.33;52.76;102720.50;2070930;28;47505;-56
2022/02/26 04:35:15;;;;;;;;;32.75;30.00;;;;;9.33;52.86;102723.16;2070765;28;47584;-59
2022/02/26 04:36:15;;;;;;;;;9.25;8.50;;;;;9.32;52.59;102726.69;2071157;28;46172;-58
2022/02/26 04:37:20;;;;;;;;;25.00;24.25;;;;;9.32;52.96;102723.16;2070994;28;47668;-58
2022/02/26 04:38:21;;;;;;;;;28.00;25.00;;;;;9.32;52.75;102725.78;2070670;28;48151;-58
2022/02/26 04:39:21;;;;;;;;;30.25;28.25;;;;;9.30;52.78;102724.88;2071359;28;47349;-58
2022/02/26 04:40:22;;;;;;;;;30.50;28.50;;;;;9.29;52.81;102725.75;2061863;28;45665;-57